sensor_id;sensor_type;location;lat;lon;timestamp;pressure;altitude;pressure_sealevel;temperature;humidity
84316;BME280;74496;52.236;5.164;2024-03-23T00:55:47;101006.56;;;9.55;76.90
84316;BME280;74496;52.236;5.164;2024-03-23T00:58:13;101012.19;;;9.50;78.10
84316;BME280;74496;52.236;5.164;2024-03-23T01:00:39;101003.03;;;9.45;77.92
84316;BME280;74496;52.236;5.164;2024-03-23T01:03:06;101007.41;;;9.44;77.61
84316;BME280;74496;52.236;5.164;2024-03-23T01:05:31;100995.81;;;9.47;77.53
84316;BME280;74496;52.236;5.164;2024-03-23T01:07:58;100999.66;;;9.43;77.23
84316;BME280;74496;52.236;5.164;2024-03-23T01:10:24;100989.28;;;9.41;77.43
84316;BME280;74496;52.236;5.164;2024-03-23T01:12:52;100987.56;;;9.40;77.50
84316;BME280;74496;52.236;5.164;2024-03-23T01:15:18;100991.81;;;9.31;77.24
84316;BME280;74496;52.236;5.164;2024-03-23T01:17:44;100988.22;;;9.32;77.65
84316;BME280;74496;52.236;5.164;2024-03-23T01:20:10;100977.34;;;9.26;77.83
84316;BME280;74496;52.236;5.164;2024-03-23T01:22:37;100980.63;;;9.18;77.69
84316;BME280;74496;52.236;5.164;2024-03-23T01:25:03;100972.84;;;9.16;78.02
84316;BME280;74496;52.236;5.164;2024-03-23T01:27:30;100970.94;;;9.07;77.64
84316;BME280;74496;52.236;5.164;2024-03-23T01:29:57;100971.31;;;9.03;78.08
84316;BME280;74496;52.236;5.164;2024-03-23T01:32:24;100970.84;;;8.98;78.63
84316;BME280;74496;52.236;5.164;2024-03-23T01:34:50;100972.19;;;8.92;78.79
84316;BME280;74496;52.236;5.164;2024-03-23T01:37:17;100965.50;;;8.88;78.55
84316;BME280;74496;52.236;5.164;2024-03-23T01:39:42;100963.38;;;8.82;79.10
84316;BME280;74496;52.236;5.164;2024-03-23T01:42:09;100958.47;;;8.77;78.36
84316;BME280;74496;52.236;5.164;2024-03-23T01:44:35;100956.47;;;8.69;78.05
84316;BME280;74496;52.236;5.164;2024-03-23T01:47:03;100950.88;;;8.63;78.69
84316;BME280;74496;52.236;5.164;2024-03-23T01:49:28;100957.06;;;8.62;78.51
84316;BME280;74496;52.236;5.164;2024-03-23T01:51:56;100956.34;;;8.60;79.18
84316;BME280;74496;52.236;5.164;2024-03-23T01:54:21;100963.53;;;8.58;79.50
84316;BME280;74496;52.236;5.164;2024-03-23T01:56:49;100949.69;;;8.56;78.71
84316;BME280;74496;52.236;5.164;2024-03-23T01:59:15;100948.72;;;8.57;79.16
84316;BME280;74496;52.236;5.164;2024-03-23T02:01:41;100952.31;;;8.56;78.18
84316;BME280;74496;52.236;5.164;2024-03-23T02:04:08;100951.44;;;8.55;78.60
84316;BME280;74496;52.236;5.164;2024-03-23T02:06:35;100948.00;;;8.55;78.51
84316;BME280;74496;52.236;5.164;2024-03-23T02:09:01;100945.34;;;8.55;78.47
84316;BME280;74496;52.236;5.164;2024-03-23T02:11:29;100953.16;;;8.56;78.69
84316;BME280;74496;52.236;5.164;2024-03-23T02:13:54;100951.59;;;8.54;78.49
84316;BME280;74496;52.236;5.164;2024-03-23T02:16:21;100946.19;;;8.55;78.90
84316;BME280;74496;52.236;5.164;2024-03-23T02:18:47;100945.94;;;8.58;77.90
84316;BME280;74496;52.236;5.164;2024-03-23T02:21:15;100946.09;;;8.57;77.60
84316;BME280;74496;52.236;5.164;2024-03-23T02:23:42;100937.81;;;8.61;78.06
84316;BME280;74496;52.236;5.164;2024-03-23T02:26:09;100934.50;;;8.59;77.86
84316;BME280;74496;52.236;5.164;2024-03-23T02:28:34;100936.16;;;8.60;78.14
84316;BME280;74496;52.236;5.164;2024-03-23T02:31:02;100935.44;;;8.58;77.40
84316;BME280;74496;52.236;5.164;2024-03-23T02:33:29;100931.03;;;8.59;76.97
84316;BME280;74496;52.236;5.164;2024-03-23T02:35:57;100922.06;;;8.50;77.03
84316;BME280;74496;52.236;5.164;2024-03-23T02:38:23;100921.50;;;8.47;77.23
84316;BME280;74496;52.236;5.164;2024-03-23T02:40:51;100922.69;;;8.42;77.55
84316;BME280;74496;52.236;5.164;2024-03-23T02:43:16;100910.09;;;8.35;77.38
84316;BME280;74496;52.236;5.164;2024-03-23T02:45:43;100913.69;;;8.34;76.88
84316;BME280;74496;52.236;5.164;2024-03-23T02:48:09;100910.72;;;8.27;76.51
84316;BME280;74496;52.236;5.164;2024-03-23T02:50:35;100913.00;;;8.20;78.00
84316;BME280;74496;52.236;5.164;2024-03-23T02:53:01;100911.69;;;8.15;77.53
84316;BME280;74496;52.236;5.164;2024-03-23T02:55:28;100916.34;;;8.11;77.04
84316;BME280;74496;52.236;5.164;2024-03-23T02:57:55;100913.72;;;8.11;76.88
84316;BME280;74496;52.236;5.164;2024-03-23T03:00:27;100910.84;;;8.03;77.33
84316;BME280;74496;52.236;5.164;2024-03-23T03:02:53;100914.06;;;7.95;78.05
84316;BME280;74496;52.236;5.164;2024-03-23T03:05:19;100912.41;;;7.94;78.34
84316;BME280;74496;52.236;5.164;2024-03-23T03:07:45;100912.75;;;7.90;78.32
84316;BME280;74496;52.236;5.164;2024-03-23T03:10:11;100918.47;;;7.84;78.04
84316;BME280;74496;52.236;5.164;2024-03-23T03:12:37;100907.16;;;7.83;77.70
84316;BME280;74496;52.236;5.164;2024-03-23T03:15:06;100908.44;;;7.78;78.06
84316;BME280;74496;52.236;5.164;2024-03-23T03:17:32;100899.97;;;7.74;78.40
84316;BME280;74496;52.236;5.164;2024-03-23T03:19:58;100906.38;;;7.70;78.20
84316;BME280;74496;52.236;5.164;2024-03-23T03:22:25;100905.69;;;7.68;78.20
84316;BME280;74496;52.236;5.164;2024-03-23T03:24:51;100904.94;;;7.66;77.61
84316;BME280;74496;52.236;5.164;2024-03-23T03:27:17;100903.53;;;7.62;78.08
84316;BME280;74496;52.236;5.164;2024-03-23T03:29:44;100896.84;;;7.58;78.38
84316;BME280;74496;52.236;5.164;2024-03-23T03:32:11;100904.13;;;7.54;77.86
84316;BME280;74496;52.236;5.164;2024-03-23T03:34:38;100899.31;;;7.48;78.32
84316;BME280;74496;52.236;5.164;2024-03-23T03:37:04;100896.09;;;7.44;77.99
84316;BME280;74496;52.236;5.164;2024-03-23T03:39:31;100896.94;;;7.45;78.42
84316;BME280;74496;52.236;5.164;2024-03-23T03:41:56;100890.34;;;7.39;77.80
84316;BME280;74496;52.236;5.164;2024-03-23T03:44:23;100888.91;;;7.35;78.63
84316;BME280;74496;52.236;5.164;2024-03-23T03:46:48;100887.34;;;7.33;77.91
84316;BME280;74496;52.236;5.164;2024-03-23T03:49:16;100887.81;;;7.26;78.30
84316;BME280;74496;52.236;5.164;2024-03-23T03:51:42;100881.94;;;7.23;78.68
84316;BME280;74496;52.236;5.164;2024-03-23T03:54:09;100883.97;;;7.19;79.20
84316;BME280;74496;52.236;5.164;2024-03-23T03:56:34;100880.66;;;7.17;79.54
84316;BME280;74496;52.236;5.164;2024-03-23T03:59:01;100880.75;;;7.16;78.45
84316;BME280;74496;52.236;5.164;2024-03-23T04:01:27;100882.53;;;7.15;79.49
84316;BME280;74496;52.236;5.164;2024-03-23T04:03:54;100886.97;;;7.26;78.92
84316;BME280;74496;52.236;5.164;2024-03-23T04:06:21;100887.44;;;7.20;78.39
84316;BME280;74496;52.236;5.164;2024-03-23T04:08:48;100883.28;;;7.17;78.71
84316;BME280;74496;52.236;5.164;2024-03-23T04:11:13;100880.22;;;7.11;78.27
84316;BME280;74496;52.236;5.164;2024-03-23T04:13:40;100871.53;;;7.10;78.47
84316;BME280;74496;52.236;5.164;2024-03-23T04:16:07;100872.13;;;7.02;78.04
84316;BME280;74496;52.236;5.164;2024-03-23T04:18:34;100869.94;;;6.96;78.79
84316;BME280;74496;52.236;5.164;2024-03-23T04:21:00;100860.63;;;6.92;78.24
84316;BME280;74496;52.236;5.164;2024-03-23T04:23:28;100862.03;;;6.85;78.28
84316;BME280;74496;52.236;5.164;2024-03-23T04:25:54;100862.97;;;6.84;78.68
84316;BME280;74496;52.236;5.164;2024-03-23T04:28:20;100863.44;;;6.78;78.59
84316;BME280;74496;52.236;5.164;2024-03-23T04:30:46;100864.38;;;6.77;79.16
84316;BME280;74496;52.236;5.164;2024-03-23T04:33:13;100865.56;;;6.73;79.26
84316;BME280;74496;52.236;5.164;2024-03-23T04:35:38;100859.78;;;6.68;78.86
84316;BME280;74496;52.236;5.164;2024-03-23T04:38:05;100869.44;;;6.67;78.64
84316;BME280;74496;52.236;5.164;2024-03-23T04:40:33;100864.44;;;6.64;79.36
84316;BME280;74496;52.236;5.164;2024-03-23T04:43:00;100862.66;;;6.65;78.87
84316;BME280;74496;52.236;5.164;2024-03-23T04:45:26;100867.28;;;6.61;78.98
84316;BME280;74496;52.236;5.164;2024-03-23T04:47:53;100866.34;;;6.62;78.18
84316;BME280;74496;52.236;5.164;2024-03-23T04:50:20;100861.94;;;6.63;78.44
84316;BME280;74496;52.236;5.164;2024-03-23T04:52:46;100856.78;;;6.61;78.38
84316;BME280;74496;52.236;5.164;2024-03-23T04:55:13;100855.84;;;6.62;79.60
84316;BME280;74496;52.236;5.164;2024-03-23T04:57:42;100855.84;;;6.62;78.91
84316;BME280;74496;52.236;5.164;2024-03-23T05:00:08;100857.44;;;6.65;78.44
84316;BME280;74496;52.236;5.164;2024-03-23T05:02:43;100852.19;;;6.65;79.02
84316;BME280;74496;52.236;5.164;2024-03-23T05:05:09;100855.63;;;6.65;78.75
84316;BME280;74496;52.236;5.164;2024-03-23T05:07:36;100844.53;;;6.62;79.19
84316;BME280;74496;52.236;5.164;2024-03-23T05:10:02;100850.72;;;6.61;78.47
84316;BME280;74496;52.236;5.164;2024-03-23T05:12:29;100857.00;;;6.58;78.79
84316;BME280;74496;52.236;5.164;2024-03-23T05:14:56;100856.78;;;6.61;78.60
84316;BME280;74496;52.236;5.164;2024-03-23T05:17:23;100852.63;;;6.58;79.02
84316;BME280;74496;52.236;5.164;2024-03-23T05:19:49;100855.84;;;6.62;78.60
84316;BME280;74496;52.236;5.164;2024-03-23T05:22:16;100853.34;;;6.61;78.69
84316;BME280;74496;52.236;5.164;2024-03-23T05:24:42;100854.69;;;6.66;78.24
84316;BME280;74496;52.236;5.164;2024-03-23T05:27:08;100855.06;;;6.73;77.33
84316;BME280;74496;52.236;5.164;2024-03-23T05:29:34;100855.81;;;6.75;77.45
84316;BME280;74496;52.236;5.164;2024-03-23T05:32:02;100866.38;;;6.73;77.00
84316;BME280;74496;52.236;5.164;2024-03-23T05:34:28;100862.81;;;6.74;78.61
84316;BME280;74496;52.236;5.164;2024-03-23T05:36:55;100854.63;;;6.79;78.31
84316;BME280;74496;52.236;5.164;2024-03-23T05:39:21;100855.31;;;6.81;78.00
84316;BME280;74496;52.236;5.164;2024-03-23T05:41:48;100847.00;;;6.87;78.07
84316;BME280;74496;52.236;5.164;2024-03-23T05:44:13;100848.25;;;6.94;76.85
84316;BME280;74496;52.236;5.164;2024-03-23T05:46:40;100847.53;;;6.92;77.49
84316;BME280;74496;52.236;5.164;2024-03-23T05:49:08;100845.38;;;6.97;76.77
84316;BME280;74496;52.236;5.164;2024-03-23T05:51:35;100838.59;;;6.95;76.47
84316;BME280;74496;52.236;5.164;2024-03-23T05:54:00;100850.06;;;7.05;76.50
84316;BME280;74496;52.236;5.164;2024-03-23T05:56:27;100845.06;;;7.13;75.66
84316;BME280;74496;52.236;5.164;2024-03-23T05:58:53;100842.13;;;7.18;75.78
84316;BME280;74496;52.236;5.164;2024-03-23T06:01:19;100842.88;;;7.31;75.34
84316;BME280;74496;52.236;5.164;2024-03-23T06:03:45;100843.56;;;7.33;75.25
84316;BME280;74496;52.236;5.164;2024-03-23T06:06:13;100843.25;;;7.38;74.41
84316;BME280;74496;52.236;5.164;2024-03-23T06:08:39;100837.63;;;7.42;74.74
84316;BME280;74496;52.236;5.164;2024-03-23T06:11:06;100845.50;;;7.42;74.82
84316;BME280;74496;52.236;5.164;2024-03-23T06:13:32;100849.31;;;7.49;74.50
84316;BME280;74496;52.236;5.164;2024-03-23T06:15:59;100857.44;;;7.46;75.00
84316;BME280;74496;52.236;5.164;2024-03-23T06:18:25;100852.31;;;7.45;75.37
84316;BME280;74496;52.236;5.164;2024-03-23T06:20:51;100845.53;;;7.54;74.07
84316;BME280;74496;52.236;5.164;2024-03-23T06:23:18;100844.44;;;7.56;74.58
84316;BME280;74496;52.236;5.164;2024-03-23T06:25:45;100843.16;;;7.62;73.73
84316;BME280;74496;52.236;5.164;2024-03-23T06:28:14;100839.78;;;7.60;74.51
84316;BME280;74496;52.236;5.164;2024-03-23T06:30:40;100838.50;;;7.65;74.17
84316;BME280;74496;52.236;5.164;2024-03-23T06:33:06;100844.69;;;7.64;73.54
84316;BME280;74496;52.236;5.164;2024-03-23T06:35:33;100833.50;;;7.73;73.64
84316;BME280;74496;52.236;5.164;2024-03-23T06:37:58;100827.50;;;7.83;73.59
84316;BME280;74496;52.236;5.164;2024-03-23T06:40:27;100841.59;;;7.70;73.37
84316;BME280;74496;52.236;5.164;2024-03-23T06:42:52;100843.41;;;7.81;73.79
84316;BME280;74496;52.236;5.164;2024-03-23T06:45:19;100842.69;;;7.90;73.18
84316;BME280;74496;52.236;5.164;2024-03-23T06:47:48;100844.47;;;7.90;72.88
84316;BME280;74496;52.236;5.164;2024-03-23T06:50:15;100838.84;;;7.94;73.93
84316;BME280;74496;52.236;5.164;2024-03-23T06:52:41;100839.44;;;7.98;73.48
84316;BME280;74496;52.236;5.164;2024-03-23T06:55:08;100836.09;;;8.07;73.27
84316;BME280;74496;52.236;5.164;2024-03-23T06:57:35;100838.97;;;8.04;73.12
84316;BME280;74496;52.236;5.164;2024-03-23T07:00:02;100837.66;;;8.10;72.65
84316;BME280;74496;52.236;5.164;2024-03-23T07:02:28;100833.22;;;8.10;72.75
84316;BME280;74496;52.236;5.164;2024-03-23T07:04:54;100836.22;;;8.17;72.87
84316;BME280;74496;52.236;5.164;2024-03-23T07:07:21;100846.94;;;8.25;72.75
84316;BME280;74496;52.236;5.164;2024-03-23T07:09:48;100842.88;;;8.43;71.59
84316;BME280;74496;52.236;5.164;2024-03-23T07:12:13;100836.31;;;8.38;72.43
84316;BME280;74496;52.236;5.164;2024-03-23T07:14:41;100836.41;;;8.36;72.27
84316;BME280;74496;52.236;5.164;2024-03-23T07:17:07;100840.84;;;8.36;72.90
84316;BME280;74496;52.236;5.164;2024-03-23T07:19:34;100841.06;;;8.44;72.11
84316;BME280;74496;52.236;5.164;2024-03-23T07:22:01;100835.53;;;8.58;72.17
84316;BME280;74496;52.236;5.164;2024-03-23T07:24:28;100834.53;;;8.71;70.43
84316;BME280;74496;52.236;5.164;2024-03-23T07:26:56;100842.56;;;8.69;71.12
84316;BME280;74496;52.236;5.164;2024-03-23T07:29:23;100842.50;;;8.80;71.13
84316;BME280;74496;52.236;5.164;2024-03-23T07:31:50;100844.66;;;8.75;71.85
84316;BME280;74496;52.236;5.164;2024-03-23T07:34:17;100842.84;;;8.87;70.91
84316;BME280;74496;52.236;5.164;2024-03-23T07:36:43;100843.91;;;8.84;70.36
84316;BME280;74496;52.236;5.164;2024-03-23T07:39:09;100852.53;;;8.86;70.02
84316;BME280;74496;52.236;5.164;2024-03-23T07:41:35;100844.06;;;9.04;69.14
84316;BME280;74496;52.236;5.164;2024-03-23T07:44:02;100836.34;;;8.91;69.29
84316;BME280;74496;52.236;5.164;2024-03-23T07:46:27;100844.06;;;9.04;69.19
84316;BME280;74496;52.236;5.164;2024-03-23T07:48:55;100837.06;;;8.93;68.87
84316;BME280;74496;52.236;5.164;2024-03-23T07:51:22;100834.84;;;9.09;69.27
84316;BME280;74496;52.236;5.164;2024-03-23T07:53:49;100837.03;;;9.25;68.04
84316;BME280;74496;52.236;5.164;2024-03-23T07:56:15;100830.16;;;9.13;67.67
84316;BME280;74496;52.236;5.164;2024-03-23T07:58:43;100830.88;;;9.15;68.05
84316;BME280;74496;52.236;5.164;2024-03-23T08:01:11;100827.25;;;9.16;68.35
84316;BME280;74496;52.236;5.164;2024-03-23T08:03:39;100834.38;;;9.25;67.67
84316;BME280;74496;52.236;5.164;2024-03-23T08:06:11;100834.81;;;9.30;67.44
84316;BME280;74496;52.236;5.164;2024-03-23T08:08:39;100833.22;;;9.39;67.35
84316;BME280;74496;52.236;5.164;2024-03-23T08:11:05;100832.72;;;9.45;65.92
84316;BME280;74496;52.236;5.164;2024-03-23T08:13:32;100827.28;;;9.47;64.83
84316;BME280;74496;52.236;5.164;2024-03-23T08:15:58;100832.44;;;9.48;66.76
84316;BME280;74496;52.236;5.164;2024-03-23T08:18:25;100834.16;;;9.59;66.08
84316;BME280;74496;52.236;5.164;2024-03-23T08:20:57;100837.97;;;9.45;65.98
84316;BME280;74496;52.236;5.164;2024-03-23T08:23:27;100838.81;;;9.46;64.18
84316;BME280;74496;52.236;5.164;2024-03-23T08:25:57;100827.56;;;9.44;65.69
84316;BME280;74496;52.236;5.164;2024-03-23T08:28:24;100824.44;;;9.59;64.70
84316;BME280;74496;52.236;5.164;2024-03-23T08:30:50;100832.75;;;9.55;64.83
84316;BME280;74496;52.236;5.164;2024-03-23T08:33:17;100823.72;;;9.48;64.27
84316;BME280;74496;52.236;5.164;2024-03-23T08:35:42;100836.91;;;9.57;64.29
84316;BME280;74496;52.236;5.164;2024-03-23T08:38:09;100830.38;;;9.52;62.92
84316;BME280;74496;52.236;5.164;2024-03-23T08:40:36;100832.66;;;9.66;63.78
84316;BME280;74496;52.236;5.164;2024-03-23T08:43:03;100839.88;;;9.64;64.28
84316;BME280;74496;52.236;5.164;2024-03-23T08:45:29;100827.88;;;9.81;64.95
84316;BME280;74496;52.236;5.164;2024-03-23T08:47:55;100820.91;;;10.10;63.93
84316;BME280;74496;52.236;5.164;2024-03-23T08:50:21;100819.91;;;10.02;63.44
84316;BME280;74496;52.236;5.164;2024-03-23T08:52:50;100822.00;;;10.08;62.89
84316;BME280;74496;52.236;5.164;2024-03-23T08:55:16;100818.56;;;10.17;62.35
84316;BME280;74496;52.236;5.164;2024-03-23T08:57:44;100827.97;;;10.20;62.33
84316;BME280;74496;52.236;5.164;2024-03-23T09:00:10;100821.09;;;10.28;60.90
84316;BME280;74496;52.236;5.164;2024-03-23T09:02:37;100825.97;;;10.43;61.25
84316;BME280;74496;52.236;5.164;2024-03-23T09:05:04;100828.91;;;10.30;61.45
84316;BME280;74496;52.236;5.164;2024-03-23T09:07:30;100825.22;;;10.12;61.21
84316;BME280;74496;52.236;5.164;2024-03-23T09:09:56;100829.16;;;10.27;60.84
84316;BME280;74496;52.236;5.164;2024-03-23T09:12:23;100830.13;;;10.26;62.48
84316;BME280;74496;52.236;5.164;2024-03-23T09:14:50;100821.13;;;10.38;62.00
84316;BME280;74496;52.236;5.164;2024-03-23T09:17:18;100818.50;;;10.38;62.99
84316;BME280;74496;52.236;5.164;2024-03-23T09:19:44;100808.94;;;10.47;62.71
84316;BME280;74496;52.236;5.164;2024-03-23T09:22:11;100819.78;;;10.53;61.56
84316;BME280;74496;52.236;5.164;2024-03-23T09:24:36;100804.34;;;10.49;61.96
84316;BME280;74496;52.236;5.164;2024-03-23T09:27:04;100822.53;;;10.52;63.50
84316;BME280;74496;52.236;5.164;2024-03-23T09:29:30;100812.53;;;10.55;62.76
84316;BME280;74496;52.236;5.164;2024-03-23T09:31:58;100813.91;;;10.69;62.52
84316;BME280;74496;52.236;5.164;2024-03-23T09:34:24;100810.16;;;10.52;63.17
84316;BME280;74496;52.236;5.164;2024-03-23T09:36:51;100816.00;;;10.66;61.60
84316;BME280;74496;52.236;5.164;2024-03-23T09:39:17;100805.88;;;10.51;61.38
84316;BME280;74496;52.236;5.164;2024-03-23T09:41:44;100810.88;;;10.84;60.59
84316;BME280;74496;52.236;5.164;2024-03-23T09:44:09;100807.41;;;11.02;59.94
84316;BME280;74496;52.236;5.164;2024-03-23T09:46:36;100809.91;;;10.65;60.19
84316;BME280;74496;52.236;5.164;2024-03-23T09:49:05;100812.41;;;10.76;60.77
84316;BME280;74496;52.236;5.164;2024-03-23T09:51:35;100814.22;;;10.56;61.47
84316;BME280;74496;52.236;5.164;2024-03-23T09:54:05;100807.97;;;10.67;62.14
84316;BME280;74496;52.236;5.164;2024-03-23T09:56:33;100808.78;;;10.77;59.92
84316;BME280;74496;52.236;5.164;2024-03-23T09:59:02;100814.91;;;10.88;60.36
84316;BME280;74496;52.236;5.164;2024-03-23T10:01:29;100811.69;;;11.13;60.57
84316;BME280;74496;52.236;5.164;2024-03-23T10:03:55;100798.19;;;11.26;57.97
84316;BME280;74496;52.236;5.164;2024-03-23T10:06:23;100817.59;;;11.35;57.35
84316;BME280;74496;52.236;5.164;2024-03-23T10:08:50;100813.34;;;11.14;56.83
84316;BME280;74496;52.236;5.164;2024-03-23T10:11:17;100818.22;;;11.19;55.74
84316;BME280;74496;52.236;5.164;2024-03-23T10:13:43;100825.16;;;11.20;56.69
84316;BME280;74496;52.236;5.164;2024-03-23T10:16:12;100824.91;;;10.84;58.43
84316;BME280;74496;52.236;5.164;2024-03-23T10:18:39;100821.16;;;10.87;58.86
84316;BME280;74496;52.236;5.164;2024-03-23T10:21:07;100819.19;;;10.98;57.15
84316;BME280;74496;52.236;5.164;2024-03-23T10:23:38;100821.16;;;10.77;57.68
84316;BME280;74496;52.236;5.164;2024-03-23T10:26:15;100816.41;;;11.10;57.04
84316;BME280;74496;52.236;5.164;2024-03-23T10:28:53;100812.22;;;11.26;58.53
84316;BME280;74496;52.236;5.164;2024-03-23T10:31:20;100806.06;;;11.45;57.56
84316;BME280;74496;52.236;5.164;2024-03-23T10:33:47;100808.78;;;11.54;56.95
84316;BME280;74496;52.236;5.164;2024-03-23T10:36:13;100804.72;;;11.69;55.79
84316;BME280;74496;52.236;5.164;2024-03-23T10:38:42;100807.13;;;11.53;56.06
84316;BME280;74496;52.236;5.164;2024-03-23T10:41:09;100808.75;;;11.63;56.13
84316;BME280;74496;52.236;5.164;2024-03-23T10:43:36;100796.19;;;11.75;55.12
84316;BME280;74496;52.236;5.164;2024-03-23T10:46:02;100800.16;;;12.16;54.96
84316;BME280;74496;52.236;5.164;2024-03-23T10:48:29;100806.38;;;12.25;53.74
84316;BME280;74496;52.236;5.164;2024-03-23T10:50:56;100791.16;;;12.55;54.89
84316;BME280;74496;52.236;5.164;2024-03-23T10:53:25;100791.47;;;12.96;53.65
84316;BME280;74496;52.236;5.164;2024-03-23T10:55:54;100794.81;;;12.98;52.13
84316;BME280;74496;52.236;5.164;2024-03-23T10:58:23;100789.00;;;12.94;51.88
84316;BME280;74496;52.236;5.164;2024-03-23T11:00:50;100794.25;;;13.12;53.93
84316;BME280;74496;52.236;5.164;2024-03-23T11:03:30;100795.91;;;13.13;50.61
84316;BME280;74496;52.236;5.164;2024-03-23T11:05:56;100791.06;;;13.08;50.50
84316;BME280;74496;52.236;5.164;2024-03-23T11:08:30;100797.28;;;12.99;48.99
84316;BME280;74496;52.236;5.164;2024-03-23T11:13:54;100794.38;;;12.49;51.08
84316;BME280;74496;52.236;5.164;2024-03-23T11:16:25;100792.97;;;12.54;50.79
84316;BME280;74496;52.236;5.164;2024-03-23T11:18:53;100789.50;;;12.98;51.25
84316;BME280;74496;52.236;5.164;2024-03-23T11:21:52;100792.41;;;13.12;51.55
84316;BME280;74496;52.236;5.164;2024-03-23T11:24:19;100799.16;;;13.25;49.16
84316;BME280;74496;52.236;5.164;2024-03-23T11:26:46;100792.94;;;13.16;49.21
84316;BME280;74496;52.236;5.164;2024-03-23T11:31:49;100801.47;;;12.66;49.66
84316;BME280;74496;52.236;5.164;2024-03-23T11:34:17;100800.22;;;12.70;50.40
84316;BME280;74496;52.236;5.164;2024-03-23T11:36:42;100798.41;;;12.71;51.17
84316;BME280;74496;52.236;5.164;2024-03-23T11:39:13;100780.88;;;12.96;49.84
84316;BME280;74496;52.236;5.164;2024-03-23T11:41:47;100783.53;;;13.40;48.94
84316;BME280;74496;52.236;5.164;2024-03-23T11:44:16;100781.50;;;13.33;47.23
84316;BME280;74496;52.236;5.164;2024-03-23T11:46:42;100789.38;;;13.86;49.15
84316;BME280;74496;52.236;5.164;2024-03-23T11:49:41;100780.38;;;14.37;47.43
84316;BME280;74496;52.236;5.164;2024-03-23T11:52:07;100774.31;;;14.94;46.75
84316;BME280;74496;52.236;5.164;2024-03-23T11:54:34;100776.94;;;15.18;45.49
84316;BME280;74496;52.236;5.164;2024-03-23T11:57:01;100779.19;;;15.46;45.86
84316;BME280;74496;52.236;5.164;2024-03-23T11:59:33;100780.16;;;15.69;43.72
84316;BME280;74496;52.236;5.164;2024-03-23T12:07:38;100771.97;;;17.02;39.53
84316;BME280;74496;52.236;5.164;2024-03-23T12:10:06;100758.09;;;17.07;37.58
84316;BME280;74496;52.236;5.164;2024-03-23T12:12:32;100773.81;;;17.02;37.96
84316;BME280;74496;52.236;5.164;2024-03-23T12:15:03;100770.97;;;16.57;39.88
84316;BME280;74496;52.236;5.164;2024-03-23T12:17:30;100769.25;;;16.87;37.97
84316;BME280;74496;52.236;5.164;2024-03-23T12:19:57;100770.47;;;16.62;38.00
84316;BME280;74496;52.236;5.164;2024-03-23T12:22:24;100761.78;;;16.14;41.20
84316;BME280;74496;52.236;5.164;2024-03-23T12:24:52;100753.28;;;16.64;41.59
84316;BME280;74496;52.236;5.164;2024-03-23T12:27:20;100745.31;;;17.17;39.01
84316;BME280;74496;52.236;5.164;2024-03-23T12:29:48;100752.22;;;17.56;38.52
84316;BME280;74496;52.236;5.164;2024-03-23T12:32:14;100749.09;;;17.67;36.74
84316;BME280;74496;52.236;5.164;2024-03-23T12:34:41;100741.22;;;18.10;36.33
84316;BME280;74496;52.236;5.164;2024-03-23T12:37:08;100745.31;;;17.76;35.29
84316;BME280;74496;52.236;5.164;2024-03-23T12:39:35;100747.78;;;17.63;35.67
84316;BME280;74496;52.236;5.164;2024-03-23T12:42:02;100746.72;;;17.43;36.91
84316;BME280;74496;52.236;5.164;2024-03-23T12:44:29;100746.16;;;17.18;37.24
84316;BME280;74496;52.236;5.164;2024-03-23T12:46:55;100752.19;;;16.97;37.87
84316;BME280;74496;52.236;5.164;2024-03-23T12:49:21;100741.94;;;17.23;38.61
84316;BME280;74496;52.236;5.164;2024-03-23T12:51:53;100740.19;;;17.30;37.03
84316;BME280;74496;52.236;5.164;2024-03-23T12:54:21;100755.59;;;17.94;38.00
84316;BME280;74496;52.236;5.164;2024-03-23T12:56:47;100742.56;;;17.85;39.03
84316;BME280;74496;52.236;5.164;2024-03-23T12:59:15;100745.16;;;18.14;37.77
84316;BME280;74496;52.236;5.164;2024-03-23T13:01:42;100739.91;;;18.70;38.59
84316;BME280;74496;52.236;5.164;2024-03-23T13:04:09;100739.88;;;19.20;38.02
84316;BME280;74496;52.236;5.164;2024-03-23T13:06:36;100729.78;;;20.05;34.99
84316;BME280;74496;52.236;5.164;2024-03-23T13:09:03;100744.28;;;20.30;34.31
84316;BME280;74496;52.236;5.164;2024-03-23T13:11:29;100738.88;;;20.10;31.06
84316;BME280;74496;52.236;5.164;2024-03-23T13:13:55;100725.19;;;19.79;30.64
84316;BME280;74496;52.236;5.164;2024-03-23T13:16:23;100742.69;;;18.77;32.83
84316;BME280;74496;52.236;5.164;2024-03-23T13:18:49;100750.69;;;18.34;33.17
84316;BME280;74496;52.236;5.164;2024-03-23T13:21:16;100742.13;;;17.51;34.35
84316;BME280;74496;52.236;5.164;2024-03-23T13:23:42;100751.22;;;17.13;35.30
84316;BME280;74496;52.236;5.164;2024-03-23T13:26:11;100742.44;;;16.89;35.31
84316;BME280;74496;52.236;5.164;2024-03-23T13:28:36;100759.56;;;16.49;37.55
84316;BME280;74496;52.236;5.164;2024-03-23T13:31:03;100758.34;;;15.74;39.48
84316;BME280;74496;52.236;5.164;2024-03-23T13:33:30;100755.91;;;14.84;41.39
84316;BME280;74496;52.236;5.164;2024-03-23T13:35:58;100749.38;;;15.03;42.57
84316;BME280;74496;52.236;5.164;2024-03-23T13:38:24;100740.00;;;15.40;41.59
84316;BME280;74496;52.236;5.164;2024-03-23T13:40:52;100736.53;;;15.31;40.13
84316;BME280;74496;52.236;5.164;2024-03-23T13:43:18;100737.97;;;14.86;41.20
84316;BME280;74496;52.236;5.164;2024-03-23T13:45:45;100742.56;;;15.09;41.46
84316;BME280;74496;52.236;5.164;2024-03-23T13:48:11;100715.97;;;15.64;40.47
84316;BME280;74496;52.236;5.164;2024-03-23T13:50:38;100711.13;;;16.30;39.80
84316;BME280;74496;52.236;5.164;2024-03-23T13:53:07;100714.44;;;16.70;37.72
84316;BME280;74496;52.236;5.164;2024-03-23T13:55:34;100713.22;;;16.58;37.69
84316;BME280;74496;52.236;5.164;2024-03-23T13:58:01;100701.97;;;16.71;36.93
84316;BME280;74496;52.236;5.164;2024-03-23T14:00:26;100714.06;;;16.81;37.45